Ana Sayfa
METAR-TAF:

METAR-TAF

Havaalanları :

Kuveyt, Kuveyt

Enlem: 29-13N, Boylam: 047-59E, yükseklik: 55 m

Güncel hava durumu gözlemi

Rapor saat 13:00 UTC de 17 dakika önce yapıldı.
Rüzgar kuzeydan 7 kt
Sıcaklık 44°C
Nem 10%
Basınç 1007 hPa
Görüş mesafesi 10 km veya daha fazla
1500 m altında bulut yok ve kümülonimbus yok

METAR: OKBK 221300Z 01007KT CAVOK 44/06 Q1007 NOSIG

Saat: 16:17 (13:17 UTC)

Tahmin

Rapor saat 10:45 UTC de 2 saat ve 32 dakika önce yapıldı.
Ayın 22'si saat 12 UTC'den ayın 23'si saat 18 UTC'ye kadar geçerli Tahmin
Rüzgar değişken yönden 3 kt
Görüş mesafesi: 7000 m

TAF: OKBK 221045Z 2212/2318 VRB03KT 7000 NSC

4.000'den fazla havaalanı için hava durumu gözlemleri ve tahminleri (METAR ve TAF raporları).

Kullanılabilir istasyonlar harita üzerinde sarı ve kırmızı noktalarla gösterilir.

İstasyonun adını görmek için fareyi noktanın üzerinde gezdirin.

Sonrasında hava gözlem ve tahminlerini görmek için tıklayın.

Haritayı değiştirmek için: yaklaştırmak için siyah artı işaretli yeşil düğmeye ve uzaklaştırmak için de eksi işaretli düğmeye hızla tıklayın; bitişik haritalar için yeşil okları kullanın.


METAR-TAF: